This is the latest recevied weather packets stored in our database for station/object EC2UT-13. If no packets are shown the sender has not sent any weather packets the latest 10 day(s).
| Time | Temp. | Humidity | Pressure | Rain* | Wind** | Luminosity | Snow |
|---|---|---|---|---|---|---|---|
| 1777954518 | 11.67° C | 64% | 1013.7 hPa | 0 mm | - | - | - |
| 1777953318 | 12.22° C | 63% | 1013.6 hPa | 0 mm | - | - | - |
| 1777949718 | 12.22° C | 63% | 1013.5 hPa | 0 mm | - | - | - |
| 1777948518 | 12.22° C | 64% | 1013.6 hPa | 0.25 mm | - | - | - |
| 1777946717 | 12.22° C | 63% | 1013.8 hPa | 0.25 mm | - | - | - |
| 1777942517 | 12.22° C | 64% | 1014.2 hPa | 0 mm | - | - | - |
| 1777941317 | 12.78° C | 63% | 1014.3 hPa | 0 mm | - | - | - |
| 1777940718 | 12.78° C | 62% | 1014.3 hPa | 0 mm | - | - | - |
| 1777936517 | 13.33° C | 62% | 1014.5 hPa | 0 mm | - | - | - |
| 1777933517 | 13.33° C | 63% | 1014.3 hPa | 0 mm | - | - | - |
| 1777932917 | 13.33° C | 64% | 1014.2 hPa | 0 mm | - | - | - |
| 1777932317 | 13.33° C | 64% | 1014.2 hPa | 0 mm | - | - | - |
| 1777931717 | 13.33° C | 64% | 1014.2 hPa | 0 mm | - | - | - |
| 1777921517 | 15.56° C | 59% | 1013.4 hPa | 0 mm | - | - | - |
| 1777917938 | 16.11° C | 57% | 1012.3 hPa | 0 mm | - | - | - |
| 1777917317 | 16.11° C | 58% | 1012.2 hPa | 0 mm | - | - | - |
| 1777913718 | 15.56° C | 57% | - | 0 mm | - | - | - |
| 1777911317 | 15.56° C | 58% | - | 0 mm | - | - | - |
| 1777907116 | 13.33° C | 63% | - | 3.56 mm | - | - | - |
| 1777898116 | 17.22° C | 62% | - | 0 mm | - | - | - |
| 1777897517 | 17.22° C | 62% | - | 0 mm | - | - | - |
| 1777894537 | 18.33° C | 57% | 1012.7 hPa | 0 mm | - | - | - |
| 1777893316 | 17.78° C | 59% | 1013.1 hPa | 0 mm | - | - | - |
| 1777888517 | 15.56° C | 65% | 1013.6 hPa | 0 mm | - | - | - |
| 1777880718 | 13.89° C | 70% | 1013.5 hPa | 0 mm | - | - | - |
* Rain latest hour (hover to see other rain measurements)
** Current wind speed in m/s (hover to see current wind gust speed)